This is the latest recevied weather packets stored in our database for station/object PT7RPC-10. If no packets are shown the sender has not sent any weather packets the latest 10 day(s).
| Time | Temp. | Humidity | Pressure | Rain* | Wind** | Luminosity | Snow |
|---|---|---|---|---|---|---|---|
| 1787589621 | 36.67° C | 41% | 1010 hPa | - | - | 0 W/m² | - |
| 1787587796 | 36.67° C | 40% | 1011 hPa | - | - | 0 W/m² | - |
| 1787585970 | 36.11° C | 40% | 1011 hPa | - | - | 0 W/m² | - |
| 1787584145 | 36.11° C | 40% | 1012 hPa | - | - | 0 W/m² | - |
| 1787584071 | 36.11° C | 40% | 1012 hPa | - | - | 0 W/m² | - |
| 1787582246 | 36.11° C | 40% | 1012 hPa | - | - | 0 W/m² | - |
| 1787580421 | 36.11° C | 40% | 1013 hPa | - | - | 0 W/m² | - |
| 1787578596 | 36.11° C | 37% | 1013 hPa | - | - | 0 W/m² | - |
| 1787576772 | 35.56° C | 38% | 1014 hPa | - | - | 0 W/m² | - |
| 1787574948 | 35° C | 39% | 1014 hPa | - | - | 0 W/m² | - |
| 1787573122 | 34.44° C | 42% | 1015 hPa | - | - | 0 W/m² | - |
| 1787571297 | 33.33° C | 42% | 1015 hPa | - | - | 0 W/m² | - |
| 1787569472 | 32.78° C | 45% | 1015 hPa | - | - | 0 W/m² | - |
| 1787567647 | 32.22° C | 48% | 1015 hPa | - | - | 0 W/m² | - |
| 1787565822 | 32.22° C | 48% | 1015 hPa | - | - | 0 W/m² | - |
| 1787563997 | 31.67° C | 49% | 1014 hPa | - | - | 0 W/m² | - |
| 1787562175 | 31.67° C | 51% | 1014 hPa | - | - | 0 W/m² | - |
| 1787562099 | 31.67° C | 51% | 1014 hPa | - | - | 0 W/m² | - |
| 1787560275 | 31.67° C | 53% | 1014 hPa | - | - | 0 W/m² | - |
| 1787558451 | 32.22° C | 52% | 1013 hPa | - | - | 0 W/m² | - |
| 1787556626 | 32.78° C | 51% | 1013 hPa | - | - | 0 W/m² | - |
| 1787554801 | 33.33° C | 51% | 1013 hPa | - | - | 0 W/m² | - |
| 1787552977 | 33.33° C | 50% | 1013 hPa | - | - | 0 W/m² | - |
| 1787551194 | 34.44° C | 49% | 1013 hPa | - | - | 0 W/m² | - |
| 1787549329 | 34.44° C | 48% | 1013 hPa | - | - | 0 W/m² | - |
* Rain since midnight (hover to see other rain measurements)
** Current wind speed in m/s (hover to see current wind gust speed)